Time,TemperatureF,DewpointF,PressureIn,WindDirection,WindDirectionDegrees,WindSpeedMPH,WindSpeedGustMPH,Humidity,HourlyPrecipIn,Conditions,Clouds,dailyrainin,SoftwareType,DateUTC
2013-03-09 00:01:00,33.0,33.0,-100.00,ENE,75,1.0,3.0,100,-99.99,,,-99.99,,2013-03-09 08:01:00,
2013-03-09 00:10:00,33.0,32.0,-100.00,ENE,60,1.0,3.0,96,-99.99,,,-99.99,,2013-03-09 08:10:00,
2013-03-09 01:01:00,33.0,32.0,-100.00,ENE,60,1.0,3.0,96,-99.99,,,-99.99,,2013-03-09 09:01:00,
2013-03-09 01:10:00,32.0,31.0,-100.00,East,95,2.0,5.0,96,-99.99,,,-99.99,,2013-03-09 09:10:00,
2013-03-09 02:01:00,32.0,31.0,-100.00,East,95,2.0,5.0,96,-99.99,,,-99.99,,2013-03-09 10:01:00,
2013-03-09 02:10:00,31.0,31.0,-100.00,East,95,3.0,6.0,100,-99.99,,,-99.99,,2013-03-09 10:10:00,
2013-03-09 03:01:00,31.0,31.0,-100.00,East,95,3.0,6.0,100,-99.99,,,-99.99,,2013-03-09 11:01:00,
2013-03-09 03:10:00,31.0,31.0,-100.00,ESE,115,5.0,6.0,100,-99.99,,,-99.99,,2013-03-09 11:10:00,
2013-03-09 04:01:00,31.0,31.0,-100.00,ESE,115,5.0,6.0,100,-99.99,,,-99.99,,2013-03-09 12:01:00,
2013-03-09 04:10:00,30.0,30.0,-100.00,East,95,2.0,5.0,100,-99.99,,,-99.99,,2013-03-09 12:10:00,
2013-03-09 05:02:00,30.0,30.0,-100.00,East,95,2.0,5.0,100,-99.99,,,-99.99,,2013-03-09 13:02:00,
2013-03-09 05:10:00,31.0,30.0,-100.00,ESE,105,6.0,9.0,96,-99.99,,,-99.99,,2013-03-09 13:10:00,
2013-03-09 06:01:00,31.0,30.0,-100.00,ESE,105,6.0,9.0,96,-99.99,,,-99.99,,2013-03-09 14:01:00,
2013-03-09 06:10:00,30.0,30.0,-100.00,East,95,1.0,5.0,100,-99.99,,,-99.99,,2013-03-09 14:10:00,
2013-03-09 07:01:00,30.0,30.0,-100.00,East,95,1.0,5.0,100,-99.99,,,-99.99,,2013-03-09 15:01:00,
2013-03-09 07:10:00,30.0,30.0,-100.00,NE,55,1.0,5.0,100,-99.99,,,-99.99,,2013-03-09 15:10:00,
2013-03-09 08:01:00,30.0,30.0,-100.00,NE,55,1.0,5.0,100,-99.99,,,-99.99,,2013-03-09 16:01:00,
2013-03-09 08:10:00,36.0,35.0,-100.00,ESE,120,2.0,3.0,96,-99.99,,,-99.99,,2013-03-09 16:10:00,
2013-03-09 09:01:00,36.0,35.0,-100.00,ESE,120,2.0,3.0,96,-99.99,,,-99.99,,2013-03-09 17:01:00,
2013-03-09 09:10:00,42.0,38.0,-100.00,SE,145,1.0,3.0,85,-99.99,,,-99.99,,2013-03-09 17:10:00,
2013-03-09 10:01:00,42.0,38.0,-100.00,SE,145,1.0,3.0,85,-99.99,,,-99.99,,2013-03-09 18:01:00,
2013-03-09 10:10:00,48.0,40.0,-100.00,WSW,245,2.0,6.0,73,-99.99,,,-99.99,,2013-03-09 18:10:00,
2013-03-09 11:01:00,48.0,40.0,-100.00,WSW,245,2.0,6.0,73,-99.99,,,-99.99,,2013-03-09 19:01:00,
2013-03-09 11:10:00,52.0,39.0,-100.00,WSW,240,3.0,9.0,61,-99.99,,,-99.99,,2013-03-09 19:10:00,
2013-03-09 12:01:00,52.0,39.0,-100.00,WSW,240,3.0,9.0,61,-99.99,,,-99.99,,2013-03-09 20:01:00,
2013-03-09 12:10:00,55.0,39.0,-100.00,WSW,250,5.0,9.0,54,-99.99,,,-99.99,,2013-03-09 20:10:00,
2013-03-09 13:02:00,55.0,39.0,-100.00,WSW,250,5.0,9.0,54,-99.99,,,-99.99,,2013-03-09 21:02:00,
2013-03-09 13:10:00,55.0,37.0,-100.00,WSW,245,5.0,7.0,50,-99.99,,,-99.99,,2013-03-09 21:10:00,
2013-03-09 14:01:00,55.0,37.0,-100.00,WSW,245,5.0,7.0,50,-99.99,,,-99.99,,2013-03-09 22:01:00,
2013-03-09 14:10:00,58.0,38.0,-100.00,West,260,2.0,9.0,47,-99.99,,,-99.99,,2013-03-09 22:10:00,
2013-03-09 15:01:00,58.0,38.0,-100.00,West,260,2.0,9.0,47,-99.99,,,-99.99,,2013-03-09 23:01:00,
2013-03-09 15:10:00,56.0,35.0,-100.00,WSW,255,3.0,8.0,45,-99.99,,,-99.99,,2013-03-09 23:10:00,
2013-03-09 16:01:00,56.0,35.0,-100.00,WSW,255,3.0,8.0,45,-99.99,,,-99.99,,2013-03-10 00:01:00,
2013-03-09 16:10:00,56.0,35.0,-100.00,SW,230,3.0,7.0,45,-99.99,,,-99.99,,2013-03-10 00:10:00,
2013-03-09 17:01:00,56.0,35.0,-100.00,SW,230,3.0,7.0,45,-99.99,,,-99.99,,2013-03-10 01:01:00,
2013-03-09 17:10:00,49.0,38.0,-100.00,ESE,110,2.0,5.0,65,-99.99,,,-99.99,,2013-03-10 01:10:00,
2013-03-09 18:01:00,49.0,38.0,-100.00,ESE,110,2.0,5.0,65,-99.99,,,-99.99,,2013-03-10 02:01:00,
2013-03-09 19:01:00,43.0,38.0,-100.00,ESE,110,3.0,6.0,82,-99.99,,,-99.99,,2013-03-10 03:01:00,
2013-03-09 19:10:00,41.0,37.0,-100.00,ESE,115,5.0,8.0,85,-99.99,,,-99.99,,2013-03-10 03:10:00,
2013-03-09 20:01:00,41.0,37.0,-100.00,ESE,115,5.0,8.0,85,-99.99,,,-99.99,,2013-03-10 04:01:00,
2013-03-09 20:10:00,40.0,36.0,-100.00,ESE,115,6.0,9.0,85,-99.99,,,-99.99,,2013-03-10 04:10:00,
2013-03-09 21:01:00,40.0,36.0,-100.00,ESE,115,6.0,9.0,85,-99.99,,,-99.99,,2013-03-10 05:01:00,
2013-03-09 21:10:00,38.0,35.0,-100.00,East,100,6.0,9.0,88,-99.99,,,-99.99,,2013-03-10 05:10:00,
2013-03-09 22:01:00,38.0,35.0,-100.00,East,100,6.0,9.0,88,-99.99,,,-99.99,,2013-03-10 06:01:00,
2013-03-09 22:10:00,36.0,34.0,-100.00,ESE,105,2.0,6.0,92,-99.99,,,-99.99,,2013-03-10 06:10:00,
2013-03-09 23:01:00,36.0,34.0,-100.00,ESE,105,2.0,6.0,92,-99.99,,,-99.99,,2013-03-10 07:01:00,
2013-03-09 23:10:00,36.0,34.0,-100.00,ESE,105,6.0,9.0,92,-99.99,,,-99.99,,2013-03-10 07:10:00,